createdAt,value
2018-03-06T00:02:06.089Z,22.30
2018-03-06T00:04:32.832Z,29.13
2018-03-06T00:06:59.538Z,22.60
2018-03-06T00:09:25.504Z,28.27
2018-03-06T00:11:58.415Z,21.07
2018-03-06T00:14:25.489Z,25.70
2018-03-06T00:16:51.389Z,25.77
2018-03-06T00:19:17.353Z,25.83
2018-03-06T00:21:43.316Z,27.10
2018-03-06T00:24:09.308Z,30.40
2018-03-06T00:26:36.321Z,27.67
2018-03-06T00:29:02.301Z,26.33
2018-03-06T00:31:28.306Z,27.40
2018-03-06T00:33:54.260Z,31.50
2018-03-06T00:36:20.216Z,25.77
2018-03-06T00:38:46.969Z,26.97
2018-03-06T00:41:12.904Z,28.77
2018-03-06T00:43:39.605Z,26.10
2018-03-06T00:46:05.598Z,27.57
2018-03-06T00:48:32.339Z,27.13
2018-03-06T00:50:58.346Z,31.10
2018-03-06T00:53:24.310Z,25.57
2018-03-06T00:55:51.019Z,27.93
2018-03-06T00:58:16.970Z,33.23
2018-03-06T01:00:42.918Z,29.60
2018-03-06T01:03:08.880Z,30.97
2018-03-06T01:05:35.576Z,35.33
2018-03-06T01:08:01.561Z,31.17
2018-03-06T01:10:28.371Z,27.70
2018-03-06T01:12:54.335Z,34.70
2018-03-06T01:15:20.293Z,31.50
2018-03-06T01:17:46.263Z,25.37
2018-03-06T01:20:12.231Z,32.83
2018-03-06T01:22:38.204Z,31.10
2018-03-06T01:25:04.197Z,28.63
2018-03-06T01:27:30.171Z,30.53
2018-03-06T01:29:56.444Z,30.73
2018-03-06T01:32:22.676Z,35.17
2018-03-06T01:34:48.655Z,33.83
2018-03-06T01:37:14.619Z,38.50
2018-03-06T01:39:41.314Z,33.37
2018-03-06T01:42:07.271Z,32.50
2018-03-06T01:44:33.250Z,36.50
2018-03-06T01:46:59.232Z,27.40
2018-03-06T01:49:25.220Z,31.87
2018-03-06T01:51:57.175Z,32.33
2018-03-06T01:54:23.899Z,35.23
2018-03-06T01:56:49.860Z,34.37
2018-03-06T01:59:16.554Z,31.57
2018-03-06T02:01:42.519Z,34.33
2018-03-06T02:04:08.502Z,28.63
2018-03-06T02:06:34.483Z,37.37
2018-03-06T02:09:00.482Z,28.43
2018-03-06T02:11:27.179Z,31.13
2018-03-06T02:13:53.140Z,38.57
2018-03-06T02:16:19.855Z,33.03
2018-03-06T02:18:45.813Z,32.67
2018-03-06T02:21:11.783Z,36.17
2018-03-06T02:23:38.052Z,37.20
2018-03-06T02:26:11.121Z,44.20
2018-03-06T02:28:37.836Z,39.43
2018-03-06T02:31:04.570Z,39.40
2018-03-06T02:33:30.577Z,41.90
2018-03-06T02:35:56.545Z,35.03
2018-03-06T02:38:22.515Z,39.70
2018-03-06T02:40:48.480Z,41.57
2018-03-06T02:43:14.452Z,41.90
2018-03-06T02:45:40.425Z,42.97
2018-03-06T02:48:07.146Z,50.43
2018-03-06T02:50:33.198Z,39.87
2018-03-06T02:52:59.175Z,42.10
2018-03-06T02:55:25.161Z,41.90
2018-03-06T02:57:51.127Z,44.83
2018-03-06T03:00:17.878Z,44.33
2018-03-06T03:02:44.576Z,38.67
2018-03-06T03:05:10.547Z,39.87
2018-03-06T03:07:36.504Z,37.63
2018-03-06T03:10:03.243Z,40.03
2018-03-06T03:12:29.215Z,41.00
2018-03-06T03:14:55.191Z,41.83
2018-03-06T03:17:21.418Z,37.13
2018-03-06T03:19:47.383Z,54.43
2018-03-06T03:22:20.489Z,51.47
2018-03-06T03:24:46.468Z,44.97
2018-03-06T03:27:13.183Z,52.07
2018-03-06T03:29:39.881Z,43.53
2018-03-06T03:32:05.856Z,38.53
2018-03-06T03:34:32.577Z,42.30
2018-03-06T03:36:58.562Z,44.60
2018-03-06T03:39:25.264Z,42.30
2018-03-06T03:41:51.236Z,37.57
2018-03-06T03:44:17.200Z,41.97
2018-03-06T03:46:43.908Z,39.20
2018-03-06T03:49:09.874Z,43.03
2018-03-06T03:51:36.593Z,39.43
2018-03-06T03:54:02.565Z,42.27
2018-03-06T03:56:29.296Z,53.97
2018-03-06T03:58:55.265Z,41.70
2018-03-06T04:01:21.980Z,41.47
2018-03-06T04:03:48.188Z,46.93
2018-03-06T04:06:14.156Z,41.60
2018-03-06T04:08:40.137Z,47.63
2018-03-06T04:11:06.107Z,40.67
2018-03-06T04:13:32.112Z,50.37
2018-03-06T04:15:58.089Z,52.40
2018-03-06T04:18:24.056Z,50.00
2018-03-06T04:20:50.776Z,40.93
2018-03-06T04:23:16.744Z,45.53
2018-03-06T04:25:43.461Z,55.53
2018-03-06T04:28:09.442Z,48.47
2018-03-06T04:30:36.139Z,48.90
2018-03-06T04:33:02.212Z,47.57
2018-03-06T04:35:28.931Z,48.10
2018-03-06T04:37:54.892Z,44.83
2018-03-06T04:40:20.861Z,42.87
2018-03-06T04:42:46.828Z,47.57
2018-03-06T04:45:12.796Z,56.87
2018-03-06T04:47:39.005Z,47.13
2018-03-06T04:50:04.980Z,49.03
2018-03-06T04:52:30.952Z,51.67
2018-03-06T04:54:56.912Z,55.33
2018-03-06T04:57:22.888Z,48.60
2018-03-06T04:59:49.608Z,51.83
2018-03-06T05:02:15.566Z,58.03
2018-03-06T05:04:41.565Z,53.27
2018-03-06T05:07:07.527Z,51.97
2018-03-06T05:09:33.526Z,52.10
2018-03-06T05:11:59.702Z,46.87
2018-03-06T05:14:26.423Z,54.10
2018-03-06T05:16:52.665Z,50.97
2018-03-06T05:19:18.908Z,56.33
2018-03-06T05:21:44.884Z,50.87
2018-03-06T05:24:10.848Z,54.67
2018-03-06T05:26:36.844Z,46.00
2018-03-06T05:29:02.822Z,51.37
2018-03-06T05:31:28.807Z,51.50
2018-03-06T05:33:54.771Z,44.67
2018-03-06T05:36:21.476Z,56.27
2018-03-06T05:38:47.440Z,48.80
2018-03-06T05:41:13.414Z,45.87
2018-03-06T05:43:39.377Z,56.83
2018-03-06T05:46:05.347Z,64.43
2018-03-06T05:48:31.317Z,45.43
2018-03-06T05:50:57.269Z,51.00
2018-03-06T05:53:23.240Z,57.13
2018-03-06T05:55:49.199Z,52.87
2018-03-06T05:58:15.903Z,51.47
2018-03-06T06:00:41.864Z,49.57
2018-03-06T06:03:09.000Z,55.43
2018-03-06T06:05:34.956Z,58.80
2018-03-06T06:08:00.967Z,48.53
2018-03-06T06:10:26.949Z,53.20
2018-03-06T06:12:52.936Z,58.40
2018-03-06T06:15:18.939Z,57.70
2018-03-06T06:17:45.644Z,58.27
2018-03-06T06:20:11.605Z,51.80
2018-03-06T06:22:37.576Z,46.57
2018-03-06T06:25:03.555Z,57.97
2018-03-06T06:27:30.335Z,50.77
2018-03-06T06:29:57.268Z,69.73
2018-03-06T06:32:23.231Z,64.60
2018-03-06T06:34:49.936Z,63.53
2018-03-06T06:37:22.401Z,59.53
2018-03-06T06:39:49.346Z,58.10
2018-03-06T06:42:15.266Z,56.37
2018-03-06T06:44:41.980Z,53.20
2018-03-06T06:47:07.944Z,53.27
2018-03-06T06:49:33.957Z,54.90
2018-03-06T06:52:00.074Z,57.47
2018-03-06T06:54:26.044Z,59.90
2018-03-06T06:56:52.008Z,56.13
2018-03-06T06:59:18.708Z,60.30
2018-03-06T07:01:44.672Z,66.80
2018-03-06T07:04:10.644Z,62.03
2018-03-06T07:06:37.341Z,52.73
2018-03-06T07:09:03.369Z,58.57
2018-03-06T07:11:29.335Z,49.77
2018-03-06T07:13:55.299Z,55.37
2018-03-06T07:16:22.012Z,53.20
2018-03-06T07:18:47.972Z,54.80
2018-03-06T07:21:14.673Z,50.00
2018-03-06T07:23:40.658Z,48.07
2018-03-06T07:26:06.624Z,57.57
2018-03-06T07:28:32.582Z,58.37
2018-03-06T07:30:58.568Z,52.73
2018-03-06T07:33:25.279Z,53.60
2018-03-06T07:35:51.248Z,59.60
2018-03-06T07:38:17.207Z,59.67
2018-03-06T07:40:43.180Z,52.37
2018-03-06T07:43:09.132Z,62.90
2018-03-06T07:45:35.092Z,61.13
2018-03-06T07:48:01.837Z,62.87
2018-03-06T07:50:28.599Z,59.13
2018-03-06T07:52:55.360Z,58.27
2018-03-06T07:55:22.064Z,68.77
2018-03-06T07:57:48.036Z,63.03
2018-03-06T08:00:14.744Z,60.20
2018-03-06T08:02:40.976Z,66.83
2018-03-06T08:05:06.920Z,63.47
2018-03-06T08:07:32.904Z,64.03
2018-03-06T08:09:59.608Z,67.90
2018-03-06T08:12:25.572Z,62.60
2018-03-06T08:14:51.537Z,56.47
2018-03-06T08:17:18.244Z,68.57
2018-03-06T08:19:44.200Z,63.03
2018-03-06T08:22:10.148Z,66.07
2018-03-06T08:24:36.131Z,72.17
2018-03-06T08:27:02.139Z,66.73
2018-03-06T08:29:28.121Z,72.27
2018-03-06T08:31:54.068Z,69.53
2018-03-06T08:36:51.904Z,73.23
2018-03-06T08:39:18.608Z,73.27
2018-03-06T08:41:44.564Z,82.27
2018-03-06T08:44:10.524Z,65.97
2018-03-06T08:46:37.252Z,69.93
2018-03-06T08:49:03.253Z,78.13
2018-03-06T08:51:29.290Z,76.50
2018-03-06T08:53:55.257Z,64.67
2018-03-06T08:56:21.217Z,67.67
2018-03-06T08:58:47.929Z,68.23
2018-03-06T09:01:13.889Z,68.03
2018-03-06T09:03:39.865Z,64.80
2018-03-06T09:06:06.559Z,72.73
2018-03-06T09:08:32.548Z,74.00
2018-03-06T09:11:05.658Z,73.53
2018-03-06T09:13:31.644Z,61.87
2018-03-06T09:15:57.613Z,71.73
2018-03-06T09:18:23.580Z,68.10
2018-03-06T09:20:49.536Z,74.30
2018-03-06T09:23:15.496Z,77.90
2018-03-06T09:25:41.692Z,75.83
2018-03-06T09:28:07.652Z,69.30
2018-03-06T09:30:33.656Z,76.10
2018-03-06T09:32:59.666Z,75.23
2018-03-06T09:35:25.642Z,77.67
2018-03-06T09:37:51.592Z,81.67
2018-03-06T09:40:17.558Z,67.87
2018-03-06T09:42:44.258Z,85.20
2018-03-06T09:45:10.269Z,73.33
2018-03-06T09:47:36.252Z,67.77
2018-03-06T09:50:02.230Z,66.27
2018-03-06T09:52:28.954Z,74.60
2018-03-06T09:54:54.917Z,71.33
2018-03-06T09:57:22.020Z,68.67
2018-03-06T09:59:47.972Z,63.23
2018-03-06T10:02:14.697Z,82.97
2018-03-06T10:04:40.656Z,72.07
2018-03-06T10:07:06.629Z,75.37
2018-03-06T10:09:33.344Z,74.00
2018-03-06T10:11:59.321Z,76.60
2018-03-06T10:14:26.033Z,85.00
2018-03-06T10:16:52.303Z,88.83
2018-03-06T10:19:18.234Z,79.30
2018-03-06T10:21:44.940Z,78.80
2018-03-06T10:24:10.921Z,78.73
2018-03-06T10:26:36.880Z,88.10
2018-03-06T10:29:03.634Z,79.10
2018-03-06T10:31:29.617Z,71.30
2018-03-06T10:33:55.588Z,83.17
2018-03-06T10:36:22.298Z,74.20
2018-03-06T10:38:48.272Z,75.73
2018-03-06T10:41:14.989Z,72.53
2018-03-06T10:43:41.106Z,79.33
2018-03-06T10:46:07.073Z,74.27
2018-03-06T10:48:33.053Z,81.50
2018-03-06T10:50:59.787Z,87.17
2018-03-06T10:53:26.497Z,76.70
2018-03-06T10:55:52.461Z,83.43
2018-03-06T10:58:18.427Z,85.37
2018-03-06T11:00:46.289Z,72.03
2018-03-06T11:03:13.050Z,80.70
2018-03-06T11:05:39.760Z,90.20
2018-03-06T11:08:05.716Z,88.10
2018-03-06T11:10:31.705Z,90.10
2018-03-06T11:12:57.656Z,86.53
2018-03-06T11:15:23.620Z,79.87
2018-03-06T11:17:49.564Z,79.60
2018-03-06T11:20:15.515Z,87.57
2018-03-06T11:22:42.224Z,86.10
2018-03-06T11:25:08.188Z,82.23
2018-03-06T11:27:34.167Z,75.10
2018-03-06T11:30:00.152Z,79.37
2018-03-06T11:32:26.109Z,81.17
2018-03-06T11:34:52.817Z,74.20
2018-03-06T11:37:18.780Z,90.90
2018-03-06T11:39:44.730Z,88.40
2018-03-06T11:42:11.428Z,78.03
2018-03-06T11:44:37.388Z,91.53
2018-03-06T11:47:03.364Z,89.13
2018-03-06T11:49:29.333Z,79.10
2018-03-06T11:51:55.308Z,76.67
2018-03-06T11:54:21.252Z,72.73
2018-03-06T11:56:47.960Z,85.30
2018-03-06T11:59:13.933Z,78.13
2018-03-06T12:01:40.637Z,82.57
2018-03-06T12:04:06.604Z,84.80
2018-03-06T12:06:32.576Z,82.73
2018-03-06T12:08:58.555Z,80.30
2018-03-06T12:11:24.504Z,93.63
2018-03-06T12:13:50.455Z,80.63
2018-03-06T12:16:16.438Z,92.30
2018-03-06T12:18:42.388Z,78.63
2018-03-06T12:21:08.348Z,80.90
2018-03-06T12:23:34.336Z,76.43
2018-03-06T12:26:00.334Z,79.53
2018-03-06T12:28:27.040Z,73.20
2018-03-06T12:30:52.998Z,78.53
2018-03-06T12:33:18.950Z,75.43
2018-03-06T12:35:44.912Z,78.87
2018-03-06T12:38:10.871Z,76.67
2018-03-06T12:40:36.833Z,83.03
2018-03-06T12:43:02.833Z,80.63
2018-03-06T12:45:28.824Z,81.60
2018-03-06T12:47:54.778Z,77.00
2018-03-06T12:50:21.495Z,87.47
2018-03-06T12:52:47.449Z,77.87
2018-03-06T12:55:13.401Z,74.57
2018-03-06T12:57:40.112Z,72.43
2018-03-06T13:00:06.075Z,78.37
2018-03-06T13:02:32.199Z,82.17
2018-03-06T13:04:58.405Z,78.83
2018-03-06T13:07:24.370Z,72.83
2018-03-06T13:09:50.332Z,74.27
2018-03-06T13:12:17.036Z,78.03
2018-03-06T13:14:43.276Z,75.37
2018-03-06T13:17:09.236Z,72.60
2018-03-06T13:19:35.195Z,87.23
2018-03-06T13:22:01.938Z,75.87
2018-03-06T13:24:27.901Z,70.17
2018-03-06T13:26:54.996Z,88.27
2018-03-06T13:29:20.941Z,75.27
2018-03-06T13:31:47.168Z,71.37
2018-03-06T13:34:13.133Z,74.00
2018-03-06T13:36:39.109Z,79.47
2018-03-06T13:39:05.093Z,68.43
2018-03-06T13:41:31.108Z,61.90
2018-03-06T13:43:57.076Z,55.77
2018-03-06T13:46:23.032Z,65.53
2018-03-06T13:48:49.753Z,62.80
2018-03-06T13:51:15.722Z,54.73
2018-03-06T13:53:42.436Z,66.43
2018-03-06T13:56:08.401Z,59.03
2018-03-06T13:58:34.428Z,63.53
2018-03-06T14:01:00.437Z,66.93
2018-03-06T14:03:26.405Z,49.00
2018-03-06T14:05:52.372Z,59.70
2018-03-06T14:08:18.339Z,76.70
2018-03-06T14:10:44.309Z,61.30
2018-03-06T14:13:10.264Z,53.80
2018-03-06T14:15:36.978Z,67.20
2018-03-06T14:18:02.947Z,56.40
2018-03-06T14:20:28.933Z,47.80
2018-03-06T14:22:54.888Z,49.90
2018-03-06T14:25:20.861Z,51.27
2018-03-06T14:27:46.823Z,49.00
2018-03-06T14:30:12.806Z,47.27
2018-03-06T14:32:39.521Z,49.43
2018-03-06T14:35:05.472Z,50.30
2018-03-06T14:37:31.501Z,46.20
2018-03-06T14:39:57.451Z,42.60
2018-03-06T14:42:23.412Z,48.97
2018-03-06T14:44:50.114Z,47.53
2018-03-06T14:47:16.087Z,48.10
2018-03-06T14:49:42.285Z,45.80
2018-03-06T14:52:08.245Z,47.30
2018-03-06T14:54:34.220Z,49.77
2018-03-06T14:57:00.936Z,44.37
2018-03-06T14:59:26.935Z,50.60
2018-03-06T15:01:53.618Z,56.53
2018-03-06T15:04:19.597Z,43.60
2018-03-06T15:06:46.333Z,49.10
2018-03-06T15:09:12.292Z,49.77
2018-03-06T15:11:38.238Z,51.07
2018-03-06T15:14:04.218Z,51.70
2018-03-06T15:16:30.179Z,57.20
2018-03-06T15:18:56.885Z,54.77
2018-03-06T15:21:22.832Z,62.30
2018-03-06T15:23:48.812Z,55.50
2018-03-06T15:26:15.528Z,58.80
2018-03-06T15:28:41.508Z,65.13
2018-03-06T15:31:07.507Z,61.07
2018-03-06T15:33:33.473Z,61.73
2018-03-06T15:36:00.234Z,59.80
2018-03-06T15:38:26.188Z,66.97
2018-03-06T15:40:52.153Z,66.20
2018-03-06T15:43:18.380Z,62.07
2018-03-06T15:45:44.353Z,66.93
2018-03-06T15:48:10.301Z,71.27
2018-03-06T15:50:37.012Z,66.90
2018-03-06T15:53:02.998Z,75.27
2018-03-06T15:55:28.971Z,69.77
2018-03-06T15:57:54.937Z,61.13
2018-03-06T16:00:20.896Z,66.60
2018-03-06T16:02:46.863Z,73.87
2018-03-06T16:05:12.819Z,66.00
2018-03-06T16:07:38.779Z,72.47
2018-03-06T16:10:04.807Z,70.23
2018-03-06T16:12:30.820Z,68.33
2018-03-06T16:14:56.782Z,86.03
2018-03-06T16:17:22.740Z,66.90
2018-03-06T16:19:49.428Z,80.00
2018-03-06T16:22:15.388Z,66.33
2018-03-06T16:24:41.364Z,69.33
2018-03-06T16:27:07.348Z,71.73
2018-03-06T16:29:33.329Z,65.00
2018-03-06T16:32:00.056Z,70.67
2018-03-06T16:34:26.023Z,76.13
2018-03-06T16:36:51.981Z,70.83
2018-03-06T16:39:18.017Z,83.97
2018-03-06T16:41:43.976Z,77.13
2018-03-06T16:44:09.932Z,75.67
2018-03-06T16:46:36.628Z,86.17
2018-03-06T16:49:02.638Z,83.23
2018-03-06T16:51:29.337Z,84.60
2018-03-06T16:53:55.301Z,95.60
2018-03-06T16:56:21.244Z,85.70
2018-03-06T16:58:47.208Z,82.27
2018-03-06T17:01:13.928Z,81.30
2018-03-06T17:03:40.952Z,90.73
2018-03-06T17:06:06.932Z,77.60
2018-03-06T17:08:32.930Z,77.30
2018-03-06T17:10:58.908Z,82.70
2018-03-06T17:13:24.864Z,85.63
2018-03-06T17:15:50.825Z,73.83
2018-03-06T17:18:16.768Z,80.57
2018-03-06T17:20:42.728Z,80.50
2018-03-06T17:23:08.689Z,84.73
2018-03-06T17:25:35.395Z,77.27
2018-03-06T17:28:01.374Z,76.10
2018-03-06T17:30:28.089Z,81.60
2018-03-06T17:32:54.049Z,73.67
2018-03-06T17:35:20.021Z,70.00
2018-03-06T17:37:45.976Z,67.13
2018-03-06T17:40:11.936Z,143.13
2018-03-06T17:42:37.904Z,92.53
2018-03-06T17:45:04.673Z,57.87
2018-03-06T17:47:30.676Z,66.40
2018-03-06T17:49:56.633Z,61.77
2018-03-06T17:52:23.354Z,68.73
2018-03-06T17:54:49.296Z,63.57
2018-03-06T17:57:15.272Z,65.97
2018-03-06T17:59:41.452Z,62.53
2018-03-06T18:02:08.097Z,57.93
2018-03-06T18:04:34.189Z,51.67
2018-03-06T18:07:00.932Z,59.53
2018-03-06T18:09:27.636Z,56.87
2018-03-06T18:11:53.612Z,60.10
2018-03-06T18:14:19.564Z,55.37
2018-03-06T18:16:46.261Z,49.67
2018-03-06T18:19:12.226Z,45.83
2018-03-06T18:21:38.184Z,54.07
2018-03-06T18:24:04.925Z,45.50
2018-03-06T18:26:30.918Z,56.67
2018-03-06T18:28:56.904Z,58.13
2018-03-06T18:31:23.604Z,67.87
2018-03-06T18:33:49.560Z,55.77
2018-03-06T18:36:15.520Z,55.70
2018-03-06T18:38:42.235Z,52.37
2018-03-06T18:41:08.200Z,50.70
2018-03-06T18:43:34.174Z,51.93
2018-03-06T18:46:00.230Z,46.97
2018-03-06T18:48:26.204Z,50.17
2018-03-06T18:51:04.600Z,58.23
2018-03-06T18:53:30.635Z,54.60
2018-03-06T18:55:56.600Z,57.63
2018-03-06T18:58:22.557Z,49.20
2018-03-06T19:01:02.168Z,56.73
2018-03-06T19:03:40.577Z,55.93
2018-03-06T19:06:18.928Z,58.37
2018-03-06T19:08:44.921Z,50.40
2018-03-06T19:11:10.912Z,54.17
2018-03-06T19:13:36.874Z,61.43
2018-03-06T19:16:03.630Z,58.30
2018-03-06T19:18:30.371Z,63.67
2018-03-06T19:20:57.092Z,52.27
2018-03-06T19:23:23.045Z,52.40
2018-03-06T19:25:49.025Z,50.83
2018-03-06T19:28:14.997Z,52.57
2018-03-06T19:30:40.980Z,57.90
2018-03-06T19:33:07.669Z,63.23
2018-03-06T19:35:33.889Z,53.37
2018-03-06T19:38:00.665Z,53.17
2018-03-06T19:40:26.637Z,58.40
2018-03-06T19:42:52.840Z,55.00
2018-03-06T19:45:18.807Z,58.50
2018-03-06T19:47:44.773Z,63.57
2018-03-06T19:50:11.492Z,60.23
2018-03-06T19:52:37.444Z,60.10
2018-03-06T19:55:03.452Z,62.73
2018-03-06T19:57:29.466Z,57.53
2018-03-06T19:59:55.436Z,66.93
2018-03-06T20:02:21.398Z,65.27
2018-03-06T20:04:48.112Z,61.80
2018-03-06T20:07:14.085Z,58.87
2018-03-06T20:09:40.798Z,70.83
2018-03-06T20:12:06.744Z,57.00
2018-03-06T20:14:39.195Z,60.27
2018-03-06T20:17:05.182Z,63.60
2018-03-06T20:19:37.344Z,62.10
2018-03-06T20:22:03.453Z,66.00
2018-03-06T20:24:35.684Z,61.40
2018-03-06T20:27:01.657Z,68.27
2018-03-06T20:29:27.608Z,60.87
2018-03-06T20:31:59.750Z,59.60
2018-03-06T20:34:25.737Z,65.37
2018-03-06T20:36:51.709Z,58.50
2018-03-06T20:39:24.534Z,61.73
2018-03-06T20:41:50.504Z,64.17
2018-03-06T20:44:16.460Z,65.50
2018-03-06T20:49:46.329Z,61.50
2018-03-06T20:52:12.300Z,62.40
2018-03-06T20:54:44.465Z,60.53
2018-03-06T20:57:11.176Z,64.10
2018-03-06T20:59:37.136Z,60.13
2018-03-06T21:02:03.168Z,57.80
2018-03-06T21:04:29.152Z,58.53
2018-03-06T21:06:55.128Z,62.87
2018-03-06T21:09:21.079Z,63.10
2018-03-06T21:11:47.785Z,61.23
2018-03-06T21:14:13.729Z,63.10
2018-03-06T21:16:39.700Z,67.20
2018-03-06T21:19:06.407Z,62.70
2018-03-06T21:21:32.466Z,69.90
2018-03-06T21:23:58.423Z,53.03
2018-03-06T21:26:25.152Z,60.73
2018-03-06T21:28:51.129Z,62.43
2018-03-06T21:31:17.837Z,57.67
2018-03-06T21:33:43.800Z,69.67
2018-03-06T21:36:09.773Z,65.90
2018-03-06T21:38:35.732Z,62.97
2018-03-06T21:41:01.725Z,60.73
2018-03-06T21:43:27.713Z,68.20
2018-03-06T21:45:53.675Z,66.87
2018-03-06T21:48:19.640Z,58.90
2018-03-06T21:50:45.603Z,62.83
2018-03-06T21:53:11.574Z,60.13
2018-03-06T21:55:38.286Z,65.97
2018-03-06T21:58:04.261Z,62.43
2018-03-06T22:00:30.220Z,64.23
2018-03-06T22:02:56.180Z,63.23
2018-03-06T22:05:22.944Z,62.27
2018-03-06T22:07:49.648Z,70.53
2018-03-06T22:10:15.612Z,71.23
2018-03-06T22:12:43.109Z,63.23
2018-03-06T22:15:09.821Z,58.93
2018-03-06T22:17:35.801Z,68.07
2018-03-06T22:20:01.784Z,67.80
2018-03-06T22:22:28.495Z,66.73
2018-03-06T22:24:54.453Z,62.37
2018-03-06T22:27:20.429Z,66.00
2018-03-06T22:29:46.391Z,59.73
2018-03-06T22:32:13.152Z,58.70
2018-03-06T22:34:40.021Z,67.17
2018-03-06T22:37:05.992Z,64.50
2018-03-06T22:39:31.948Z,71.23
2018-03-06T22:41:59.396Z,62.03
2018-03-06T22:44:25.349Z,58.63
2018-03-06T22:46:51.324Z,62.10
2018-03-06T22:49:17.292Z,64.77
2018-03-06T22:51:43.284Z,61.20
2018-03-06T22:54:09.245Z,60.60
2018-03-06T22:56:35.207Z,61.97
2018-03-06T22:59:01.162Z,56.33
2018-03-06T23:01:27.140Z,68.53
2018-03-06T23:03:53.107Z,71.50
2018-03-06T23:06:19.107Z,62.10
2018-03-06T23:08:45.077Z,58.43
2018-03-06T23:11:11.057Z,61.83
2018-03-06T23:13:37.747Z,74.97
2018-03-06T23:16:03.756Z,60.30
2018-03-06T23:18:29.707Z,57.80
2018-03-06T23:20:55.667Z,61.77
2018-03-06T23:23:21.691Z,67.63
2018-03-06T23:25:47.696Z,60.80
2018-03-06T23:28:13.674Z,60.07
2018-03-06T23:30:39.639Z,60.60
2018-03-06T23:33:05.932Z,54.67
2018-03-06T23:35:32.172Z,51.40
2018-03-06T23:37:58.138Z,63.30
2018-03-06T23:40:24.098Z,58.53
2018-03-06T23:42:50.872Z,52.83
2018-03-06T23:45:23.898Z,54.60
2018-03-06T23:47:49.878Z,52.40
2018-03-06T23:50:16.588Z,51.97
2018-03-06T23:52:42.539Z,47.93
2018-03-06T23:55:08.497Z,53.03
2018-03-06T23:57:34.454Z,46.03
